Change the Weather History Date:

Saturday, January 4, 2014

  Actual Average Record
Temperature  
Mean Temperature 23 °F -  
Max Temperature 32 °F 26 °F 48 °F (2007)
Min Temperature 14 °F 14 °F -14 °F (1981)
Degree Days  
Heating Degree Days 42    
Moisture  
Dew Point 15 °F    
Average Humidity 70    
Maximum Humidity 82    
Minimum Humidity 60    
Precipitation  
Precipitation 0.00 in - - ()
Sea Level Pressure  
Sea Level Pressure 29.82 in    
Wind  
Wind Speed 16 mph (WSW)    
Max Wind Speed 28 mph    
Max Gust Speed 37 mph    
Visibility 10 miles    
Events Snow    
Averages and records for this station are not official NWS values.
T = Trace of Precipitation, MM = Missing Value Source: NWS Daily Summary

Daily Weather History Graph

Daily Weather History Graph

Search for Another Location

Airport or City:

Trip Planner

Search our weather history database for the weather conditions in past years. The results will help you decide how hot, cold, wet, or windy it might be!

Date:

Astronomy

Jan. 04, 2014 Rise Set
Actual Time 7:27 AM CST 4:32 PM CST
Civil Twilight 6:55 AM CST 5:04 PM CST
Nautical Twilight 6:19 AM CST 5:40 PM CST
Astronomical Twilight 5:44 AM CST 6:15 PM CST
Moon 9:25 AM CST (1/4) 9:00 PM CST (1/4)
Length of Visible Light 10h 09m
Length of Day
9h 04m
Waxing Crescent, 15% of the Moon is Illuminated
Jan 4
Waxing Crescent
Jan 7
First Quarter
Jan 15
Full
Jan 23
Last Quarter
Jan 30
New

Hourly Weather History & Observations

Time (CST) Temp. Windchill Dew Point Humidity Pressure Visibility Wind Dir Wind Speed Gust Speed Precip Events Conditions
12:15 AM 17.6 °F 2.7 °F 10.4 °F 73% 29.75 in 10.0 mi South 16.1 mph 21.9 mph N/A   Clear
12:35 AM 17.6 °F 1.7 °F 10.4 °F 73% 29.73 in 10.0 mi South 18.4 mph 24.2 mph N/A   Clear
12:55 AM 17.6 °F 0.9 °F 10.4 °F 73% 29.72 in 10.0 mi South 20.7 mph 29.9 mph N/A   Clear
1:15 AM 17.6 °F 1.7 °F 10.4 °F 73% 29.72 in 10.0 mi South 18.4 mph 25.3 mph N/A   Clear
1:35 AM 17.8 °F 1.9 °F 10.4 °F 73% 29.71 in 10.0 mi South 18.4 mph 27.6 mph N/A   Clear
1:55 AM 18.1 °F 1.6 °F 10.8 °F 73% 29.70 in 10.0 mi South 20.7 mph 25.3 mph N/A   Clear
2:15 AM 18.5 °F 2.4 °F 10.9 °F 72% 29.70 in 10.0 mi South 19.6 mph 25.3 mph N/A   Clear
2:35 AM 18.9 °F 3.3 °F 11.3 °F 72% 29.69 in 10.0 mi South 18.4 mph 26.5 mph N/A   Clear
2:55 AM 19.4 °F 2.8 °F 11.3 °F 71% 29.69 in 10.0 mi South 21.9 mph 25.3 mph N/A   Clear
3:15 AM 19.8 °F 3.7 °F 11.5 °F 70% 29.69 in 10.0 mi South 20.7 mph 26.5 mph N/A   Clear
3:35 AM 20.3 °F 3.7 °F 12.0 °F 70% 29.68 in 10.0 mi South 23.0 mph 29.9 mph N/A   Clear
3:55 AM 21.0 °F 5.0 °F 12.4 °F 69% 29.67 in 10.0 mi South 21.9 mph 28.8 mph N/A   Scattered Clouds
4:15 AM 21.6 °F 6.1 °F 13.1 °F 70% 29.67 in 10.0 mi South 20.7 mph 28.8 mph N/A   Mostly Cloudy
4:35 AM 22.1 °F 5.7 °F 13.1 °F 68% 29.67 in 10.0 mi South 24.2 mph 31.1 mph N/A   Overcast
4:55 AM 22.1 °F 5.7 °F 13.3 °F 69% 29.67 in 10.0 mi South 24.2 mph 29.9 mph N/A   Overcast
5:15 AM 23.2 °F 7.1 °F 14.0 °F 68% 29.67 in 7.0 mi SSW 24.2 mph 36.8 mph N/A   Mostly Cloudy
5:35 AM 23.5 °F 7.6 °F 14.5 °F 69% 29.66 in 5.0 mi South 24.2 mph 36.8 mph N/A   Haze
5:55 AM 23.5 °F 6.7 °F 14.9 °F 70% 29.68 in 5.0 mi SSW 27.6 mph 35.7 mph N/A   Haze
6:15 AM 23.5 °F 8.3 °F 14.9 °F 70% 29.67 in 10.0 mi SSW 21.9 mph 27.6 mph N/A   Overcast
6:35 AM 23.7 °F 8.9 °F 14.7 °F 69% 29.69 in 10.0 mi SSW 20.7 mph 26.5 mph N/A   Overcast
6:55 AM 23.9 °F 9.5 °F 15.1 °F 69% 29.69 in 10.0 mi SSW 19.6 mph 25.3 mph N/A   Overcast
7:15 AM 23.9 °F 10.8 °F 15.4 °F 70% 29.69 in 10.0 mi SSW 16.1 mph - N/A   Overcast
7:35 AM 24.4 °F 10.6 °F 15.4 °F 69% 29.71 in 10.0 mi SSW 18.4 mph 23.0 mph N/A   Overcast
7:55 AM 24.8 °F 10.3 °F 15.8 °F 69% 29.72 in 10.0 mi SSW 20.7 mph - N/A   Overcast
8:15 AM 24.8 °F 11.5 °F 15.8 °F 69% 29.72 in 10.0 mi SSW 17.3 mph 21.9 mph N/A   Overcast
8:35 AM 25.2 °F 12.4 °F 16.0 °F 68% 29.72 in 10.0 mi SSW 16.1 mph 25.3 mph N/A   Overcast
8:55 AM 25.5 °F 12.9 °F 16.5 °F 69% 29.72 in 10.0 mi SSW 16.1 mph 24.2 mph N/A   Overcast
9:15 AM 25.7 °F 12.7 °F 16.9 °F 69% 29.73 in 10.0 mi SSW 17.3 mph 21.9 mph N/A   Overcast
9:35 AM 26.2 °F 13.8 °F 17.4 °F 69% 29.73 in 10.0 mi SSW 16.1 mph 20.7 mph N/A   Overcast
9:55 AM 26.6 °F 14.7 °F 18.0 °F 70% 29.74 in 10.0 mi SSW 15.0 mph - N/A   Overcast
10:15 AM 27.3 °F 16.1 °F 18.3 °F 69% 29.76 in 10.0 mi SSW 13.8 mph - N/A   Overcast
10:35 AM 28.0 °F 16.1 °F 18.9 °F 68% 29.76 in 10.0 mi SSW 16.1 mph - N/A   Overcast
10:55 AM 28.8 °F 17.9 °F 19.4 °F 68% 29.75 in 10.0 mi SSW 13.8 mph - N/A   Overcast
11:15 AM 29.1 °F 18.9 °F 19.8 °F 68% 29.75 in 10.0 mi SSW 12.7 mph - N/A   Overcast
11:35 AM 29.8 °F 18.9 °F 19.9 °F 67% 29.75 in 10.0 mi SW 15.0 mph - N/A   Overcast
11:55 AM 30.0 °F 19.5 °F 20.3 °F 67% 29.77 in 10.0 mi SW 13.8 mph 18.4 mph N/A   Overcast
12:15 PM 30.2 °F 20.2 °F 20.8 °F 68% 29.77 in 10.0 mi SW 12.7 mph - N/A   Overcast
12:35 PM 30.2 °F 21.3 °F 21.2 °F 69% 29.77 in 10.0 mi SW 10.4 mph - N/A   Overcast
12:55 PM 30.2 °F 21.9 °F 23.0 °F 75% 29.76 in 5.0 mi SW 9.2 mph - N/A Snow Light Snow
1:15 PM 29.7 °F 21.3 °F 24.4 °F 81% 29.77 in 3.0 mi SW 9.2 mph - N/A Snow Light Snow
1:35 PM 29.8 °F 23.0 °F 24.6 °F 81% 29.77 in 10.0 mi SW 6.9 mph - N/A   Overcast
1:55 PM 30.2 °F 23.4 °F 24.8 °F 80% 29.78 in 10.0 mi SW 6.9 mph - N/A   Overcast
2:15 PM 30.6 °F 23.8 °F 24.8 °F 79% 29.79 in 10.0 mi SW 6.9 mph - N/A   Overcast
2:35 PM 30.7 °F 24.9 °F 24.8 °F 79% 29.81 in 10.0 mi WSW 5.8 mph - N/A   Overcast
2:55 PM 32.0 °F 28.7 °F 24.8 °F 75% 29.82 in 10.0 mi West 3.5 mph - N/A   Overcast
3:15 PM 32.0 °F 28.7 °F 25.2 °F 76% 29.84 in 10.0 mi West 3.5 mph - N/A   Overcast
3:35 PM 31.8 °F 23.9 °F 26.2 °F 80% 29.86 in 10.0 mi NW 9.2 mph - N/A   Overcast
3:55 PM 30.6 °F 23.1 °F 25.5 °F 82% 29.88 in 7.0 mi NW 8.1 mph - N/A   Overcast
4:15 PM 30.2 °F 22.6 °F 24.6 °F 80% 29.88 in 10.0 mi NW 8.1 mph - N/A   Overcast
4:35 PM 29.3 °F 19.1 °F 22.5 °F 76% 29.89 in 10.0 mi NW 12.7 mph - N/A   Overcast
4:55 PM 28.2 °F 21.0 °F 21.0 °F 74% 29.90 in 10.0 mi NW 6.9 mph 16.1 mph N/A   Overcast
5:15 PM 26.8 °F 16.5 °F 19.2 °F 73% 29.92 in 10.0 mi NNW 11.5 mph 16.1 mph N/A   Overcast
5:35 PM 25.5 °F 16.9 °F 16.7 °F 69% 29.93 in 10.0 mi NNW 8.1 mph - N/A   Mostly Cloudy
5:55 PM 24.6 °F 17.7 °F 16.2 °F 70% 29.95 in 10.0 mi NNW 5.8 mph - N/A   Scattered Clouds
6:15 PM 23.9 °F 14.2 °F 15.8 °F 71% 29.96 in 10.0 mi NNW 9.2 mph - N/A   Scattered Clouds
6:35 PM 23.2 °F 13.3 °F 14.4 °F 69% 29.97 in 10.0 mi NW 9.2 mph - N/A   Mostly Cloudy
6:55 PM 22.1 °F 10.6 °F 12.2 °F 66% 29.98 in 10.0 mi NW 11.5 mph 17.3 mph N/A   Overcast
7:15 PM 21.2 °F 10.1 °F 10.4 °F 63% 30.00 in 10.0 mi NW 10.4 mph 17.3 mph N/A   Overcast
7:35 PM 20.3 °F 8.3 °F 10.4 °F 66% 30.00 in 10.0 mi NNW 11.5 mph 16.1 mph N/A   Overcast
7:55 PM 19.6 °F 6.2 °F 9.1 °F 64% 30.01 in 10.0 mi NW 13.8 mph 18.4 mph N/A   Overcast
8:15 PM 18.5 °F 5.5 °F 7.7 °F 63% 30.02 in 10.0 mi NW 12.7 mph 19.6 mph N/A   Overcast
8:35 PM 18.1 °F 7.1 °F 7.5 °F 63% 30.03 in 10.0 mi NNW 9.2 mph - N/A   Overcast
8:55 PM 17.6 °F 5.7 °F 6.4 °F 62% 30.03 in 10.0 mi NNW 10.4 mph - N/A   Overcast
9:15 PM 17.2 °F 5.2 °F 5.9 °F 61% 30.03 in 10.0 mi NNW 10.4 mph - N/A   Overcast
9:35 PM 16.7 °F 3.2 °F 5.0 °F 60% 30.04 in 10.0 mi NNW 12.7 mph 17.3 mph N/A   Overcast
9:55 PM 16.5 °F 5.1 °F 4.8 °F 60% 30.04 in 10.0 mi NNW 9.2 mph - N/A   Overcast
10:15 PM 15.8 °F 4.2 °F 5.0 °F 62% 30.06 in 10.0 mi NNW 9.2 mph - N/A   Overcast
10:35 PM 15.6 °F 4.9 °F 5.0 °F 63% 30.06 in 10.0 mi NNW 8.1 mph - N/A   Overcast
10:55 PM 15.3 °F 4.4 °F 4.8 °F 63% 30.07 in 10.0 mi NNW 8.1 mph - N/A   Overcast
11:15 PM 14.9 °F 3.1 °F 4.6 °F 64% 30.07 in 10.0 mi NNW 9.2 mph - N/A   Mostly Cloudy
11:35 PM 14.7 °F 2.9 °F 4.6 °F 64% 30.07 in 10.0 mi NNW 9.2 mph - N/A   Mostly Cloudy
11:55 PM 14.5 °F 2.7 °F 4.1 °F 63% 30.07 in 10.0 mi NNW 9.2 mph - N/A   Mostly Cloudy